< < Back
Terminal Aerodrome Forecast


Current Version              Previous Versions:   1  2  3  4  5  6  7  8  9  

Terminal Aerodrome Forecast

885
FTUS42 KFFC 302123 AAB
TAFMCN
TAF AMD
KMCN 302123Z 3021/3118 06010KT P6SM VCSH SCT025
      TEMPO 3021/3023 VRB10G20KT 2SM +TSRA BR BKN015CB
     FM302300 09008KT P6SM SCT020 BKN100
     FM310600 09003KT 6SM BR SCT005 OVC050
     FM311100 09003KT 2SM BR BKN008
     FM311300 09005KT 4SM BR BKN012
     FM311400 07006KT 6SM BR BKN015
     FM311600 05006KT P6SM OVC020=



Latest METAR

651
SAUS80 KWBC 310000 RRB
MTRMCN
METAR KMCN 302353Z 11005KT 10SM OVC049 24/22 A3005 RMK AO2 SLP172
T02440217 10283 20244 53006


USA.gov is the U.S. government's official web portal to all federal, state and local government web resources and services.